sensor_id;sensor_type;location;lat;lon;timestamp;P1;durP1;ratioP1;P2;durP2;ratioP2
53833;SDS011;39735;51.432;5.482;2022-08-21T00:02:22;10.98;;;4.88;;
53833;SDS011;39735;51.432;5.482;2022-08-21T00:04:49;4.95;;;3.25;;
53833;SDS011;39735;51.432;5.482;2022-08-21T00:07:15;8.52;;;3.45;;
53833;SDS011;39735;51.432;5.482;2022-08-21T00:09:41;9.50;;;3.90;;
53833;SDS011;39735;51.432;5.482;2022-08-21T00:12:07;7.78;;;3.72;;
53833;SDS011;39735;51.432;5.482;2022-08-21T00:14:32;6.25;;;3.00;;
53833;SDS011;39735;51.432;5.482;2022-08-21T00:16:58;7.28;;;4.10;;
53833;SDS011;39735;51.432;5.482;2022-08-21T00:19:24;13.18;;;4.00;;
53833;SDS011;39735;51.432;5.482;2022-08-21T00:21:53;7.68;;;3.35;;
53833;SDS011;39735;51.432;5.482;2022-08-21T00:24:19;13.90;;;4.00;;
53833;SDS011;39735;51.432;5.482;2022-08-21T00:26:45;8.10;;;3.10;;
53833;SDS011;39735;51.432;5.482;2022-08-21T00:29:11;13.00;;;3.33;;
53833;SDS011;39735;51.432;5.482;2022-08-21T00:31:37;6.50;;;3.15;;
53833;SDS011;39735;51.432;5.482;2022-08-21T00:34:02;11.13;;;4.78;;
53833;SDS011;39735;51.432;5.482;2022-08-21T00:36:28;12.85;;;4.40;;
53833;SDS011;39735;51.432;5.482;2022-08-21T00:38:54;11.80;;;4.38;;
53833;SDS011;39735;51.432;5.482;2022-08-21T00:41:19;15.77;;;3.53;;
53833;SDS011;39735;51.432;5.482;2022-08-21T00:43:46;9.63;;;4.25;;
53833;SDS011;39735;51.432;5.482;2022-08-21T00:46:11;11.68;;;3.30;;
53833;SDS011;39735;51.432;5.482;2022-08-21T00:48:36;9.02;;;3.70;;
53833;SDS011;39735;51.432;5.482;2022-08-21T00:53:32;9.10;;;3.53;;
53833;SDS011;39735;51.432;5.482;2022-08-21T00:55:58;14.25;;;5.05;;
53833;SDS011;39735;51.432;5.482;2022-08-21T00:58:26;13.38;;;5.22;;
53833;SDS011;39735;51.432;5.482;2022-08-21T01:00:52;7.18;;;3.75;;
53833;SDS011;39735;51.432;5.482;2022-08-21T01:03:19;13.93;;;4.63;;
53833;SDS011;39735;51.432;5.482;2022-08-21T01:05:46;11.23;;;5.40;;
53833;SDS011;39735;51.432;5.482;2022-08-21T01:08:13;11.43;;;4.28;;
53833;SDS011;39735;51.432;5.482;2022-08-21T01:10:38;5.85;;;4.45;;
53833;SDS011;39735;51.432;5.482;2022-08-21T01:13:05;11.07;;;3.95;;
53833;SDS011;39735;51.432;5.482;2022-08-21T01:15:34;30.70;;;6.93;;
53833;SDS011;39735;51.432;5.482;2022-08-21T01:18:03;15.77;;;5.10;;
53833;SDS011;39735;51.432;5.482;2022-08-21T01:20:29;5.40;;;4.85;;
53833;SDS011;39735;51.432;5.482;2022-08-21T01:22:55;19.75;;;5.72;;
53833;SDS011;39735;51.432;5.482;2022-08-21T01:25:21;10.00;;;4.72;;
53833;SDS011;39735;51.432;5.482;2022-08-21T01:27:46;5.45;;;4.15;;
53833;SDS011;39735;51.432;5.482;2022-08-21T01:30:14;7.60;;;4.78;;
53833;SDS011;39735;51.432;5.482;2022-08-21T01:32:42;12.27;;;4.63;;
53833;SDS011;39735;51.432;5.482;2022-08-21T01:35:08;7.22;;;4.32;;
53833;SDS011;39735;51.432;5.482;2022-08-21T01:37:34;17.15;;;4.72;;
53833;SDS011;39735;51.432;5.482;2022-08-21T01:39:59;13.93;;;4.70;;
53833;SDS011;39735;51.432;5.482;2022-08-21T01:42:25;12.75;;;5.93;;
53833;SDS011;39735;51.432;5.482;2022-08-21T01:44:51;8.73;;;4.25;;
53833;SDS011;39735;51.432;5.482;2022-08-21T01:47:16;9.77;;;4.90;;
53833;SDS011;39735;51.432;5.482;2022-08-21T01:49:42;7.85;;;4.43;;
53833;SDS011;39735;51.432;5.482;2022-08-21T01:52:09;5.68;;;4.45;;
53833;SDS011;39735;51.432;5.482;2022-08-21T01:54:34;15.35;;;6.68;;
53833;SDS011;39735;51.432;5.482;2022-08-21T01:57:00;17.13;;;5.82;;
53833;SDS011;39735;51.432;5.482;2022-08-21T01:59:26;14.18;;;6.25;;
53833;SDS011;39735;51.432;5.482;2022-08-21T02:01:52;8.60;;;6.32;;
53833;SDS011;39735;51.432;5.482;2022-08-21T02:04:19;12.27;;;5.78;;
53833;SDS011;39735;51.432;5.482;2022-08-21T02:06:44;20.00;;;5.72;;
53833;SDS011;39735;51.432;5.482;2022-08-21T02:09:10;24.25;;;4.95;;
53833;SDS011;39735;51.432;5.482;2022-08-21T02:11:37;6.13;;;5.55;;
53833;SDS011;39735;51.432;5.482;2022-08-21T02:14:06;11.35;;;6.10;;
53833;SDS011;39735;51.432;5.482;2022-08-21T02:16:36;11.27;;;5.35;;
53833;SDS011;39735;51.432;5.482;2022-08-21T02:19:03;13.02;;;6.40;;
53833;SDS011;39735;51.432;5.482;2022-08-21T02:21:29;25.23;;;7.28;;
53833;SDS011;39735;51.432;5.482;2022-08-21T02:23:55;21.15;;;8.57;;
53833;SDS011;39735;51.432;5.482;2022-08-21T02:26:20;12.32;;;5.88;;
53833;SDS011;39735;51.432;5.482;2022-08-21T02:28:45;12.55;;;5.45;;
53833;SDS011;39735;51.432;5.482;2022-08-21T02:31:11;16.75;;;7.22;;
53833;SDS011;39735;51.432;5.482;2022-08-21T02:33:36;6.28;;;5.45;;
53833;SDS011;39735;51.432;5.482;2022-08-21T02:36:03;11.80;;;5.90;;
53833;SDS011;39735;51.432;5.482;2022-08-21T02:38:30;10.15;;;6.65;;
53833;SDS011;39735;51.432;5.482;2022-08-21T02:40:58;12.60;;;6.22;;
53833;SDS011;39735;51.432;5.482;2022-08-21T02:43:24;6.90;;;5.50;;
53833;SDS011;39735;51.432;5.482;2022-08-21T02:45:51;14.88;;;5.50;;
53833;SDS011;39735;51.432;5.482;2022-08-21T02:48:18;15.88;;;6.63;;
53833;SDS011;39735;51.432;5.482;2022-08-21T02:50:52;12.65;;;6.03;;
53833;SDS011;39735;51.432;5.482;2022-08-21T02:53:26;10.25;;;7.05;;
53833;SDS011;39735;51.432;5.482;2022-08-21T02:55:52;19.30;;;6.45;;
53833;SDS011;39735;51.432;5.482;2022-08-21T02:58:19;18.58;;;7.15;;
53833;SDS011;39735;51.432;5.482;2022-08-21T03:00:49;21.08;;;7.05;;
53833;SDS011;39735;51.432;5.482;2022-08-21T03:03:16;24.10;;;8.82;;
53833;SDS011;39735;51.432;5.482;2022-08-21T03:05:42;12.68;;;6.00;;
53833;SDS011;39735;51.432;5.482;2022-08-21T03:08:09;14.13;;;6.20;;
53833;SDS011;39735;51.432;5.482;2022-08-21T03:10:39;12.07;;;6.38;;
53833;SDS011;39735;51.432;5.482;2022-08-21T03:13:07;13.95;;;6.78;;
53833;SDS011;39735;51.432;5.482;2022-08-21T03:15:33;16.05;;;7.10;;
53833;SDS011;39735;51.432;5.482;2022-08-21T03:17:58;11.68;;;6.95;;
53833;SDS011;39735;51.432;5.482;2022-08-21T03:20:25;14.10;;;5.78;;
53833;SDS011;39735;51.432;5.482;2022-08-21T03:22:53;12.98;;;6.85;;
53833;SDS011;39735;51.432;5.482;2022-08-21T03:25:20;11.55;;;7.07;;
53833;SDS011;39735;51.432;5.482;2022-08-21T03:27:47;22.15;;;6.38;;
53833;SDS011;39735;51.432;5.482;2022-08-21T03:30:14;9.40;;;5.93;;
53833;SDS011;39735;51.432;5.482;2022-08-21T03:32:40;11.00;;;5.70;;
53833;SDS011;39735;51.432;5.482;2022-08-21T03:35:06;24.63;;;7.97;;
53833;SDS011;39735;51.432;5.482;2022-08-21T03:37:33;17.75;;;6.50;;
53833;SDS011;39735;51.432;5.482;2022-08-21T03:39:58;11.10;;;5.55;;
53833;SDS011;39735;51.432;5.482;2022-08-21T03:42:24;20.77;;;6.65;;
53833;SDS011;39735;51.432;5.482;2022-08-21T03:44:49;9.30;;;6.25;;
53833;SDS011;39735;51.432;5.482;2022-08-21T03:47:15;22.10;;;7.03;;
53833;SDS011;39735;51.432;5.482;2022-08-21T03:49:40;14.98;;;6.40;;
53833;SDS011;39735;51.432;5.482;2022-08-21T03:52:06;13.85;;;6.43;;
53833;SDS011;39735;51.432;5.482;2022-08-21T03:54:31;13.38;;;6.75;;
53833;SDS011;39735;51.432;5.482;2022-08-21T03:56:56;14.65;;;5.95;;
53833;SDS011;39735;51.432;5.482;2022-08-21T03:59:22;15.50;;;6.35;;
53833;SDS011;39735;51.432;5.482;2022-08-21T04:01:55;17.13;;;6.13;;
53833;SDS011;39735;51.432;5.482;2022-08-21T04:04:22;14.90;;;6.00;;
53833;SDS011;39735;51.432;5.482;2022-08-21T04:06:47;18.02;;;7.18;;
53833;SDS011;39735;51.432;5.482;2022-08-21T04:09:13;13.23;;;5.75;;
53833;SDS011;39735;51.432;5.482;2022-08-21T04:11:38;10.45;;;5.60;;
53833;SDS011;39735;51.432;5.482;2022-08-21T04:14:03;16.05;;;7.63;;
53833;SDS011;39735;51.432;5.482;2022-08-21T04:16:29;23.13;;;6.55;;
53833;SDS011;39735;51.432;5.482;2022-08-21T04:18:55;40.80;;;6.97;;
53833;SDS011;39735;51.432;5.482;2022-08-21T04:21:21;8.68;;;5.13;;
53833;SDS011;39735;51.432;5.482;2022-08-21T04:23:46;17.90;;;5.47;;
53833;SDS011;39735;51.432;5.482;2022-08-21T04:26:12;11.23;;;5.93;;
53833;SDS011;39735;51.432;5.482;2022-08-21T04:28:37;21.20;;;6.63;;
53833;SDS011;39735;51.432;5.482;2022-08-21T04:31:02;16.38;;;4.18;;
53833;SDS011;39735;51.432;5.482;2022-08-21T04:33:28;11.00;;;5.45;;
53833;SDS011;39735;51.432;5.482;2022-08-21T04:35:54;21.02;;;5.82;;
53833;SDS011;39735;51.432;5.482;2022-08-21T04:38:19;16.50;;;6.47;;
53833;SDS011;39735;51.432;5.482;2022-08-21T04:40:45;16.73;;;6.20;;
53833;SDS011;39735;51.432;5.482;2022-08-21T04:43:11;17.00;;;5.35;;
53833;SDS011;39735;51.432;5.482;2022-08-21T04:45:37;19.48;;;5.05;;
53833;SDS011;39735;51.432;5.482;2022-08-21T04:48:06;12.50;;;4.72;;
53833;SDS011;39735;51.432;5.482;2022-08-21T04:53:13;19.40;;;5.80;;
53833;SDS011;39735;51.432;5.482;2022-08-21T04:55:59;13.88;;;4.97;;
53833;SDS011;39735;51.432;5.482;2022-08-21T04:58:26;9.85;;;5.15;;
53833;SDS011;39735;51.432;5.482;2022-08-21T05:00:53;14.35;;;5.40;;
53833;SDS011;39735;51.432;5.482;2022-08-21T05:03:19;9.95;;;4.47;;
53833;SDS011;39735;51.432;5.482;2022-08-21T05:05:44;14.88;;;5.60;;
53833;SDS011;39735;51.432;5.482;2022-08-21T05:08:11;17.77;;;6.15;;
53833;SDS011;39735;51.432;5.482;2022-08-21T05:10:37;16.50;;;6.45;;
53833;SDS011;39735;51.432;5.482;2022-08-21T05:13:03;15.82;;;5.57;;
53833;SDS011;39735;51.432;5.482;2022-08-21T05:15:30;17.45;;;5.63;;
53833;SDS011;39735;51.432;5.482;2022-08-21T05:17:55;15.57;;;5.22;;
53833;SDS011;39735;51.432;5.482;2022-08-21T05:20:21;26.33;;;6.25;;
53833;SDS011;39735;51.432;5.482;2022-08-21T05:22:46;15.57;;;5.47;;
53833;SDS011;39735;51.432;5.482;2022-08-21T05:25:11;35.20;;;6.15;;
53833;SDS011;39735;51.432;5.482;2022-08-21T05:27:37;32.47;;;5.15;;
53833;SDS011;39735;51.432;5.482;2022-08-21T05:30:04;25.20;;;5.45;;
53833;SDS011;39735;51.432;5.482;2022-08-21T05:32:32;22.20;;;6.10;;
53833;SDS011;39735;51.432;5.482;2022-08-21T05:34:57;15.80;;;6.00;;
53833;SDS011;39735;51.432;5.482;2022-08-21T05:37:23;9.40;;;4.68;;
53833;SDS011;39735;51.432;5.482;2022-08-21T05:39:48;11.50;;;4.90;;
53833;SDS011;39735;51.432;5.482;2022-08-21T05:42:13;11.10;;;4.25;;
53833;SDS011;39735;51.432;5.482;2022-08-21T05:44:39;18.50;;;6.75;;
53833;SDS011;39735;51.432;5.482;2022-08-21T05:47:05;24.70;;;6.05;;
53833;SDS011;39735;51.432;5.482;2022-08-21T05:49:32;14.38;;;6.38;;
53833;SDS011;39735;51.432;5.482;2022-08-21T05:51:57;6.60;;;4.00;;
53833;SDS011;39735;51.432;5.482;2022-08-21T05:54:23;14.13;;;4.82;;
53833;SDS011;39735;51.432;5.482;2022-08-21T05:56:48;22.42;;;4.93;;
53833;SDS011;39735;51.432;5.482;2022-08-21T05:59:14;10.90;;;4.40;;
53833;SDS011;39735;51.432;5.482;2022-08-21T06:01:39;16.58;;;3.95;;
53833;SDS011;39735;51.432;5.482;2022-08-21T06:04:05;22.38;;;6.78;;
53833;SDS011;39735;51.432;5.482;2022-08-21T06:06:31;29.55;;;5.90;;
53833;SDS011;39735;51.432;5.482;2022-08-21T06:08:57;17.75;;;5.43;;
53833;SDS011;39735;51.432;5.482;2022-08-21T06:11:23;18.27;;;4.95;;
53833;SDS011;39735;51.432;5.482;2022-08-21T06:13:48;20.08;;;4.43;;
53833;SDS011;39735;51.432;5.482;2022-08-21T06:16:14;10.43;;;4.07;;
53833;SDS011;39735;51.432;5.482;2022-08-21T06:18:40;12.50;;;4.07;;
53833;SDS011;39735;51.432;5.482;2022-08-21T06:21:06;17.95;;;5.18;;
53833;SDS011;39735;51.432;5.482;2022-08-21T06:23:32;18.85;;;4.80;;
53833;SDS011;39735;51.432;5.482;2022-08-21T06:25:59;29.27;;;4.55;;
53833;SDS011;39735;51.432;5.482;2022-08-21T06:28:25;18.30;;;4.63;;
53833;SDS011;39735;51.432;5.482;2022-08-21T06:30:50;14.80;;;3.58;;
53833;SDS011;39735;51.432;5.482;2022-08-21T06:33:16;22.77;;;3.85;;
53833;SDS011;39735;51.432;5.482;2022-08-21T06:35:41;8.55;;;3.28;;
53833;SDS011;39735;51.432;5.482;2022-08-21T06:38:06;14.05;;;4.00;;
53833;SDS011;39735;51.432;5.482;2022-08-21T06:40:32;14.00;;;4.20;;
53833;SDS011;39735;51.432;5.482;2022-08-21T06:42:58;13.60;;;4.13;;
53833;SDS011;39735;51.432;5.482;2022-08-21T06:45:33;11.35;;;4.18;;
53833;SDS011;39735;51.432;5.482;2022-08-21T06:47:59;24.63;;;3.65;;
53833;SDS011;39735;51.432;5.482;2022-08-21T06:50:24;18.17;;;4.93;;
53833;SDS011;39735;51.432;5.482;2022-08-21T06:52:50;17.35;;;4.88;;
53833;SDS011;39735;51.432;5.482;2022-08-21T06:55:24;20.48;;;4.10;;
53833;SDS011;39735;51.432;5.482;2022-08-21T06:57:49;19.83;;;3.95;;
53833;SDS011;39735;51.432;5.482;2022-08-21T07:00:14;12.43;;;2.80;;
53833;SDS011;39735;51.432;5.482;2022-08-21T07:02:40;16.20;;;5.13;;
53833;SDS011;39735;51.432;5.482;2022-08-21T07:05:05;17.65;;;3.97;;
53833;SDS011;39735;51.432;5.482;2022-08-21T07:07:31;18.98;;;3.65;;
53833;SDS011;39735;51.432;5.482;2022-08-21T07:09:57;21.25;;;4.15;;
53833;SDS011;39735;51.432;5.482;2022-08-21T07:12:22;25.67;;;6.53;;
53833;SDS011;39735;51.432;5.482;2022-08-21T07:14:47;16.77;;;3.80;;
53833;SDS011;39735;51.432;5.482;2022-08-21T07:17:13;24.75;;;6.53;;
53833;SDS011;39735;51.432;5.482;2022-08-21T07:19:38;14.27;;;3.13;;
53833;SDS011;39735;51.432;5.482;2022-08-21T07:22:04;25.00;;;4.93;;
53833;SDS011;39735;51.432;5.482;2022-08-21T07:24:29;17.52;;;3.97;;
53833;SDS011;39735;51.432;5.482;2022-08-21T07:26:55;14.18;;;5.10;;
53833;SDS011;39735;51.432;5.482;2022-08-21T07:29:20;19.13;;;3.25;;
53833;SDS011;39735;51.432;5.482;2022-08-21T07:31:46;18.95;;;4.50;;
53833;SDS011;39735;51.432;5.482;2022-08-21T07:34:11;19.23;;;2.97;;
53833;SDS011;39735;51.432;5.482;2022-08-21T07:36:37;22.83;;;3.58;;
53833;SDS011;39735;51.432;5.482;2022-08-21T07:39:02;28.58;;;4.05;;
53833;SDS011;39735;51.432;5.482;2022-08-21T07:41:28;25.42;;;3.10;;
53833;SDS011;39735;51.432;5.482;2022-08-21T07:43:57;16.92;;;3.80;;
53833;SDS011;39735;51.432;5.482;2022-08-21T07:46:23;33.50;;;5.95;;
53833;SDS011;39735;51.432;5.482;2022-08-21T07:48:49;24.08;;;3.80;;
53833;SDS011;39735;51.432;5.482;2022-08-21T07:51:15;23.98;;;3.60;;
53833;SDS011;39735;51.432;5.482;2022-08-21T07:53:41;20.55;;;4.32;;
53833;SDS011;39735;51.432;5.482;2022-08-21T07:56:07;19.83;;;3.13;;
53833;SDS011;39735;51.432;5.482;2022-08-21T07:58:33;25.40;;;3.20;;
53833;SDS011;39735;51.432;5.482;2022-08-21T08:00:59;24.55;;;3.40;;
53833;SDS011;39735;51.432;5.482;2022-08-21T08:03:25;14.50;;;3.28;;
53833;SDS011;39735;51.432;5.482;2022-08-21T08:05:51;30.42;;;4.75;;
53833;SDS011;39735;51.432;5.482;2022-08-21T08:08:16;48.47;;;4.35;;
53833;SDS011;39735;51.432;5.482;2022-08-21T08:10:42;17.48;;;3.28;;
53833;SDS011;39735;51.432;5.482;2022-08-21T08:13:08;31.00;;;2.92;;
53833;SDS011;39735;51.432;5.482;2022-08-21T08:15:33;25.73;;;5.65;;
53833;SDS011;39735;51.432;5.482;2022-08-21T08:17:59;17.20;;;3.38;;
53833;SDS011;39735;51.432;5.482;2022-08-21T08:20:24;31.65;;;5.47;;
53833;SDS011;39735;51.432;5.482;2022-08-21T08:22:51;43.75;;;5.63;;
53833;SDS011;39735;51.432;5.482;2022-08-21T08:25:18;23.05;;;3.30;;
53833;SDS011;39735;51.432;5.482;2022-08-21T08:27:44;27.48;;;3.72;;
53833;SDS011;39735;51.432;5.482;2022-08-21T08:30:10;34.88;;;4.72;;
53833;SDS011;39735;51.432;5.482;2022-08-21T08:32:37;14.40;;;3.05;;
53833;SDS011;39735;51.432;5.482;2022-08-21T08:35:03;24.75;;;4.93;;
53833;SDS011;39735;51.432;5.482;2022-08-21T08:37:29;28.92;;;3.72;;
53833;SDS011;39735;51.432;5.482;2022-08-21T08:39:55;27.45;;;5.07;;
53833;SDS011;39735;51.432;5.482;2022-08-21T08:42:31;9.77;;;2.47;;
53833;SDS011;39735;51.432;5.482;2022-08-21T08:44:59;17.63;;;4.28;;
53833;SDS011;39735;51.432;5.482;2022-08-21T08:47:29;20.70;;;3.08;;
53833;SDS011;39735;51.432;5.482;2022-08-21T08:52:36;22.27;;;4.47;;
53833;SDS011;39735;51.432;5.482;2022-08-21T08:55:08;11.85;;;2.90;;
53833;SDS011;39735;51.432;5.482;2022-08-21T08:57:37;20.02;;;4.85;;
53833;SDS011;39735;51.432;5.482;2022-08-21T09:00:05;24.08;;;4.20;;
53833;SDS011;39735;51.432;5.482;2022-08-21T09:02:34;18.75;;;3.58;;
53833;SDS011;39735;51.432;5.482;2022-08-21T09:05:03;19.67;;;2.55;;
53833;SDS011;39735;51.432;5.482;2022-08-21T09:08:05;18.17;;;4.15;;
53833;SDS011;39735;51.432;5.482;2022-08-21T09:13:21;36.80;;;6.25;;
53833;SDS011;39735;51.432;5.482;2022-08-21T09:15:57;36.30;;;3.53;;
53833;SDS011;39735;51.432;5.482;2022-08-21T09:24:29;21.80;;;3.72;;
53833;SDS011;39735;51.432;5.482;2022-08-21T09:27:08;19.98;;;3.17;;
53833;SDS011;39735;51.432;5.482;2022-08-21T09:29:39;8.13;;;2.15;;
53833;SDS011;39735;51.432;5.482;2022-08-21T09:34:42;11.68;;;2.15;;
53833;SDS011;39735;51.432;5.482;2022-08-21T09:37:15;24.50;;;2.92;;
53833;SDS011;39735;51.432;5.482;2022-08-21T09:39:42;22.88;;;5.03;;
53833;SDS011;39735;51.432;5.482;2022-08-21T09:42:09;22.58;;;3.13;;
53833;SDS011;39735;51.432;5.482;2022-08-21T09:44:36;17.80;;;2.50;;
53833;SDS011;39735;51.432;5.482;2022-08-21T09:47:06;9.85;;;2.92;;
53833;SDS011;39735;51.432;5.482;2022-08-21T09:49:33;25.33;;;3.40;;
53833;SDS011;39735;51.432;5.482;2022-08-21T09:52:06;19.65;;;4.38;;
53833;SDS011;39735;51.432;5.482;2022-08-21T09:54:39;7.93;;;2.35;;
53833;SDS011;39735;51.432;5.482;2022-08-21T09:59:52;15.63;;;2.65;;
53833;SDS011;39735;51.432;5.482;2022-08-21T10:04:54;14.88;;;2.55;;
53833;SDS011;39735;51.432;5.482;2022-08-21T10:07:24;21.80;;;3.15;;
53833;SDS011;39735;51.432;5.482;2022-08-21T10:09:58;24.75;;;3.60;;
53833;SDS011;39735;51.432;5.482;2022-08-21T10:12:29;11.55;;;1.60;;
53833;SDS011;39735;51.432;5.482;2022-08-21T10:15:20;22.27;;;2.78;;
53833;SDS011;39735;51.432;5.482;2022-08-21T10:28:51;10.80;;;1.50;;
53833;SDS011;39735;51.432;5.482;2022-08-21T10:37:15;10.40;;;1.73;;
53833;SDS011;39735;51.432;5.482;2022-08-21T10:42:31;6.28;;;1.77;;
53833;SDS011;39735;51.432;5.482;2022-08-21T10:47:41;21.80;;;2.10;;
53833;SDS011;39735;51.432;5.482;2022-08-21T10:50:12;22.10;;;1.58;;
53833;SDS011;39735;51.432;5.482;2022-08-21T10:52:54;18.35;;;2.53;;
53833;SDS011;39735;51.432;5.482;2022-08-21T10:55:22;12.93;;;2.20;;
53833;SDS011;39735;51.432;5.482;2022-08-21T11:00:28;13.10;;;2.58;;
53833;SDS011;39735;51.432;5.482;2022-08-21T11:02:58;11.65;;;2.80;;
53833;SDS011;39735;51.432;5.482;2022-08-21T11:05:30;23.73;;;2.78;;
53833;SDS011;39735;51.432;5.482;2022-08-21T11:08:02;10.57;;;3.42;;
53833;SDS011;39735;51.432;5.482;2022-08-21T11:16:18;22.27;;;3.83;;
53833;SDS011;39735;51.432;5.482;2022-08-21T11:21:48;20.00;;;3.00;;
53833;SDS011;39735;51.432;5.482;2022-08-21T11:27:03;16.52;;;3.90;;
53833;SDS011;39735;51.432;5.482;2022-08-21T11:29:35;23.27;;;2.88;;
53833;SDS011;39735;51.432;5.482;2022-08-21T11:40:03;12.70;;;2.08;;
53833;SDS011;39735;51.432;5.482;2022-08-21T11:42:40;21.05;;;1.52;;
53833;SDS011;39735;51.432;5.482;2022-08-21T11:45:20;14.23;;;2.55;;
53833;SDS011;39735;51.432;5.482;2022-08-21T11:50:38;12.88;;;3.40;;
53833;SDS011;39735;51.432;5.482;2022-08-21T11:55:37;14.45;;;3.25;;
53833;SDS011;39735;51.432;5.482;2022-08-21T12:01:14;17.33;;;3.05;;
53833;SDS011;39735;51.432;5.482;2022-08-21T12:03:56;5.57;;;2.17;;
53833;SDS011;39735;51.432;5.482;2022-08-21T12:06:29;10.70;;;2.17;;
53833;SDS011;39735;51.432;5.482;2022-08-21T12:08:58;5.05;;;2.00;;
53833;SDS011;39735;51.432;5.482;2022-08-21T12:11:45;14.95;;;2.40;;
53833;SDS011;39735;51.432;5.482;2022-08-21T12:14:16;14.77;;;2.10;;
53833;SDS011;39735;51.432;5.482;2022-08-21T12:16:44;11.00;;;2.83;;
53833;SDS011;39735;51.432;5.482;2022-08-21T12:24:20;7.63;;;3.45;;
53833;SDS011;39735;51.432;5.482;2022-08-21T12:26:57;8.35;;;2.03;;
53833;SDS011;39735;51.432;5.482;2022-08-21T12:29:29;14.02;;;3.88;;
53833;SDS011;39735;51.432;5.482;2022-08-21T12:34:36;10.48;;;2.30;;
53833;SDS011;39735;51.432;5.482;2022-08-21T12:37:10;13.27;;;2.70;;
53833;SDS011;39735;51.432;5.482;2022-08-21T12:39:42;14.32;;;2.50;;
53833;SDS011;39735;51.432;5.482;2022-08-21T12:42:36;12.32;;;2.80;;
53833;SDS011;39735;51.432;5.482;2022-08-21T12:45:04;10.80;;;2.70;;
53833;SDS011;39735;51.432;5.482;2022-08-21T12:47:44;14.07;;;2.22;;
53833;SDS011;39735;51.432;5.482;2022-08-21T12:50:13;12.07;;;2.70;;
53833;SDS011;39735;51.432;5.482;2022-08-21T12:52:48;9.32;;;2.13;;
53833;SDS011;39735;51.432;5.482;2022-08-21T12:55:25;15.57;;;2.08;;
53833;SDS011;39735;51.432;5.482;2022-08-21T12:57:52;14.70;;;2.50;;
53833;SDS011;39735;51.432;5.482;2022-08-21T13:00:20;17.95;;;2.67;;
53833;SDS011;39735;51.432;5.482;2022-08-21T13:02:48;11.27;;;3.28;;
53833;SDS011;39735;51.432;5.482;2022-08-21T13:05:19;20.45;;;2.42;;
53833;SDS011;39735;51.432;5.482;2022-08-21T13:07:58;16.95;;;3.83;;
53833;SDS011;39735;51.432;5.482;2022-08-21T13:10:29;11.82;;;2.58;;
53833;SDS011;39735;51.432;5.482;2022-08-21T13:12:57;32.30;;;3.75;;
53833;SDS011;39735;51.432;5.482;2022-08-21T13:15:29;16.27;;;3.22;;
53833;SDS011;39735;51.432;5.482;2022-08-21T13:17:56;5.95;;;1.48;;
53833;SDS011;39735;51.432;5.482;2022-08-21T13:22:57;12.93;;;2.85;;
53833;SDS011;39735;51.432;5.482;2022-08-21T13:25:25;14.02;;;3.40;;
53833;SDS011;39735;51.432;5.482;2022-08-21T13:28:12;16.60;;;2.47;;
53833;SDS011;39735;51.432;5.482;2022-08-21T13:30:50;10.70;;;2.55;;
53833;SDS011;39735;51.432;5.482;2022-08-21T13:33:19;7.43;;;2.55;;
53833;SDS011;39735;51.432;5.482;2022-08-21T13:38:15;7.63;;;2.47;;
53833;SDS011;39735;51.432;5.482;2022-08-21T13:40:51;24.45;;;4.65;;
53833;SDS011;39735;51.432;5.482;2022-08-21T13:43:25;16.52;;;3.22;;
53833;SDS011;39735;51.432;5.482;2022-08-21T13:45:53;12.75;;;4.97;;
53833;SDS011;39735;51.432;5.482;2022-08-21T13:48:20;14.18;;;3.05;;
53833;SDS011;39735;51.432;5.482;2022-08-21T13:50:48;9.75;;;2.97;;
53833;SDS011;39735;51.432;5.482;2022-08-21T13:53:29;9.52;;;3.88;;
53833;SDS011;39735;51.432;5.482;2022-08-21T13:55:56;13.00;;;3.67;;
53833;SDS011;39735;51.432;5.482;2022-08-21T13:58:26;10.90;;;3.22;;
53833;SDS011;39735;51.432;5.482;2022-08-21T14:01:15;21.40;;;4.15;;
53833;SDS011;39735;51.432;5.482;2022-08-21T14:03:45;13.45;;;3.75;;
53833;SDS011;39735;51.432;5.482;2022-08-21T14:06:15;19.75;;;3.22;;
53833;SDS011;39735;51.432;5.482;2022-08-21T14:08:46;23.90;;;4.32;;
53833;SDS011;39735;51.432;5.482;2022-08-21T14:11:15;18.33;;;3.65;;
53833;SDS011;39735;51.432;5.482;2022-08-21T14:13:45;14.10;;;3.15;;
53833;SDS011;39735;51.432;5.482;2022-08-21T14:16:14;34.22;;;7.03;;
53833;SDS011;39735;51.432;5.482;2022-08-21T14:19:44;19.92;;;3.55;;
53833;SDS011;39735;51.432;5.482;2022-08-21T14:21:45;16.27;;;3.67;;
53833;SDS011;39735;51.432;5.482;2022-08-21T14:27:03;26.20;;;3.38;;
53833;SDS011;39735;51.432;5.482;2022-08-21T14:29:38;20.40;;;4.93;;
53833;SDS011;39735;51.432;5.482;2022-08-21T14:32:13;28.63;;;5.55;;
53833;SDS011;39735;51.432;5.482;2022-08-21T14:34:40;12.45;;;2.85;;
53833;SDS011;39735;51.432;5.482;2022-08-21T14:37:06;19.02;;;5.40;;
53833;SDS011;39735;51.432;5.482;2022-08-21T14:39:31;22.85;;;6.68;;
53833;SDS011;39735;51.432;5.482;2022-08-21T14:41:57;19.58;;;4.85;;
53833;SDS011;39735;51.432;5.482;2022-08-21T14:44:23;18.15;;;4.13;;
53833;SDS011;39735;51.432;5.482;2022-08-21T14:46:48;16.23;;;3.78;;
53833;SDS011;39735;51.432;5.482;2022-08-21T14:49:14;19.60;;;3.42;;
53833;SDS011;39735;51.432;5.482;2022-08-21T14:51:39;14.75;;;4.32;;
53833;SDS011;39735;51.432;5.482;2022-08-21T14:54:05;25.85;;;3.90;;
53833;SDS011;39735;51.432;5.482;2022-08-21T14:56:32;20.27;;;4.07;;
53833;SDS011;39735;51.432;5.482;2022-08-21T14:58:59;28.95;;;5.43;;
53833;SDS011;39735;51.432;5.482;2022-08-21T15:01:28;14.13;;;4.07;;
53833;SDS011;39735;51.432;5.482;2022-08-21T15:03:53;14.40;;;3.75;;
53833;SDS011;39735;51.432;5.482;2022-08-21T15:06:19;17.52;;;3.40;;
53833;SDS011;39735;51.432;5.482;2022-08-21T15:08:46;25.85;;;3.35;;
53833;SDS011;39735;51.432;5.482;2022-08-21T15:11:13;13.02;;;5.72;;
53833;SDS011;39735;51.432;5.482;2022-08-21T15:13:41;25.10;;;3.13;;
53833;SDS011;39735;51.432;5.482;2022-08-21T15:16:08;20.33;;;4.05;;
53833;SDS011;39735;51.432;5.482;2022-08-21T15:18:34;21.75;;;5.95;;
53833;SDS011;39735;51.432;5.482;2022-08-21T15:20:59;19.58;;;3.78;;
53833;SDS011;39735;51.432;5.482;2022-08-21T15:23:25;22.10;;;4.38;;
53833;SDS011;39735;51.432;5.482;2022-08-21T15:25:50;11.55;;;3.72;;
53833;SDS011;39735;51.432;5.482;2022-08-21T15:28:17;14.15;;;3.08;;
53833;SDS011;39735;51.432;5.482;2022-08-21T15:30:44;20.42;;;3.28;;
53833;SDS011;39735;51.432;5.482;2022-08-21T15:33:10;16.92;;;4.40;;
53833;SDS011;39735;51.432;5.482;2022-08-21T15:35:35;19.92;;;3.40;;
53833;SDS011;39735;51.432;5.482;2022-08-21T15:38:01;19.45;;;5.25;;
53833;SDS011;39735;51.432;5.482;2022-08-21T15:40:27;20.45;;;4.07;;
53833;SDS011;39735;51.432;5.482;2022-08-21T15:42:55;13.48;;;3.58;;
53833;SDS011;39735;51.432;5.482;2022-08-21T15:45:22;19.42;;;4.07;;
53833;SDS011;39735;51.432;5.482;2022-08-21T15:47:48;18.10;;;4.15;;
53833;SDS011;39735;51.432;5.482;2022-08-21T15:50:14;23.73;;;3.47;;
53833;SDS011;39735;51.432;5.482;2022-08-21T15:52:39;19.27;;;5.13;;
53833;SDS011;39735;51.432;5.482;2022-08-21T15:55:05;26.42;;;5.03;;
53833;SDS011;39735;51.432;5.482;2022-08-21T15:57:31;13.43;;;4.18;;
53833;SDS011;39735;51.432;5.482;2022-08-21T15:59:58;13.75;;;3.47;;
53833;SDS011;39735;51.432;5.482;2022-08-21T16:02:30;16.13;;;3.20;;
53833;SDS011;39735;51.432;5.482;2022-08-21T16:04:56;22.92;;;3.67;;
53833;SDS011;39735;51.432;5.482;2022-08-21T16:07:22;8.00;;;3.25;;
53833;SDS011;39735;51.432;5.482;2022-08-21T16:09:47;19.08;;;3.35;;
53833;SDS011;39735;51.432;5.482;2022-08-21T16:12:15;16.05;;;3.90;;
53833;SDS011;39735;51.432;5.482;2022-08-21T16:14:47;16.20;;;3.42;;